createdAt,value
2023-03-31T00:02:44.919Z,2.00
2023-03-31T00:07:51.153Z,1.92
2023-03-31T00:12:53.867Z,1.65
2023-03-31T00:18:01.128Z,1.60
2023-03-31T00:23:06.820Z,1.70
2023-03-31T00:28:09.660Z,1.63
2023-03-31T00:33:12.737Z,2.00
2023-03-31T00:38:15.620Z,2.10
2023-03-31T00:43:39.974Z,2.10
2023-03-31T00:48:58.151Z,2.25
2023-03-31T00:54:06.405Z,2.13
2023-03-31T00:59:12.620Z,2.28
2023-03-31T01:04:22.923Z,2.20
2023-03-31T01:09:26.746Z,2.42
2023-03-31T01:14:32.344Z,2.22
2023-03-31T01:20:02.449Z,2.22
2023-03-31T01:25:34.686Z,2.45
2023-03-31T01:30:49.931Z,2.25
2023-03-31T01:36:16.945Z,2.08
2023-03-31T01:41:38.065Z,2.22
2023-03-31T01:46:56.053Z,1.98
2023-03-31T01:52:13.483Z,2.28
2023-03-31T01:57:20.034Z,2.58
2023-03-31T02:02:31.009Z,2.05
2023-03-31T02:07:44.874Z,1.80
2023-03-31T02:12:50.678Z,2.28
2023-03-31T02:17:56.660Z,1.90
2023-03-31T02:23:03.040Z,2.13
2023-03-31T02:28:13.108Z,1.90
2023-03-31T02:33:17.760Z,2.30
2023-03-31T02:38:21.100Z,2.40
2023-03-31T02:43:24.458Z,2.58
2023-03-31T02:48:41.071Z,2.33
2023-03-31T02:54:11.345Z,2.45
2023-03-31T02:59:42.635Z,2.30
2023-03-31T03:04:54.107Z,2.65
2023-03-31T03:10:07.712Z,2.22
2023-03-31T03:15:32.894Z,2.90
2023-03-31T03:20:36.219Z,2.50
2023-03-31T03:25:39.093Z,2.70
2023-03-31T03:30:42.780Z,2.75
2023-03-31T03:35:45.614Z,2.33
2023-03-31T03:40:50.205Z,3.20
2023-03-31T03:45:53.209Z,2.60
2023-03-31T03:50:55.866Z,2.85
2023-03-31T03:55:59.655Z,2.53
2023-03-31T04:01:02.930Z,3.08
2023-03-31T04:06:06.147Z,2.65
2023-03-31T04:11:18.095Z,2.40
2023-03-31T04:16:23.984Z,2.13
2023-03-31T04:21:26.705Z,2.50
2023-03-31T04:26:43.658Z,2.50
2023-03-31T04:31:48.068Z,1.98
2023-03-31T04:36:51.779Z,2.30
2023-03-31T04:41:55.536Z,2.60
2023-03-31T04:46:59.747Z,2.90
2023-03-31T04:52:03.422Z,1.85
2023-03-31T04:57:06.554Z,2.70
2023-03-31T05:02:09.537Z,2.60
2023-03-31T05:07:11.945Z,2.38
2023-03-31T05:12:14.925Z,2.65
2023-03-31T05:17:18.204Z,2.70
2023-03-31T05:22:22.207Z,2.40
2023-03-31T05:27:25.553Z,2.60
2023-03-31T05:32:29.289Z,2.00
2023-03-31T05:37:34.227Z,2.03
2023-03-31T05:42:48.545Z,1.95
2023-03-31T05:49:08.744Z,2.25
2023-03-31T05:54:14.433Z,2.60
2023-03-31T06:00:12.126Z,2.03
2023-03-31T06:05:17.805Z,2.33
2023-03-31T06:10:22.479Z,3.53
2023-03-31T06:15:29.702Z,1.83
2023-03-31T06:20:35.780Z,2.10
2023-03-31T06:25:50.253Z,2.20
2023-03-31T06:31:11.761Z,1.90
2023-03-31T06:36:18.997Z,1.90
2023-03-31T06:41:51.813Z,2.00
2023-03-31T06:47:03.576Z,2.67
2023-03-31T06:52:06.648Z,2.10
2023-03-31T06:57:10.602Z,1.90
2023-03-31T07:02:14.977Z,2.22
2023-03-31T07:07:18.551Z,2.33
2023-03-31T07:12:22.136Z,2.05
2023-03-31T07:17:25.789Z,2.50
2023-03-31T07:22:29.429Z,1.98
2023-03-31T07:27:39.578Z,2.13
2023-03-31T07:32:44.138Z,1.70
2023-03-31T07:38:03.963Z,3.25
2023-03-31T07:43:12.464Z,1.83
2023-03-31T07:48:15.121Z,1.95
2023-03-31T07:53:19.029Z,2.22
2023-03-31T07:58:22.043Z,2.10
2023-03-31T08:03:25.437Z,1.65
2023-03-31T08:08:28.444Z,1.80
2023-03-31T08:13:31.773Z,2.00
2023-03-31T08:18:35.976Z,1.98
2023-03-31T08:23:39.107Z,1.50
2023-03-31T08:28:43.407Z,2.40
2023-03-31T08:33:55.860Z,1.80
2023-03-31T08:38:59.180Z,1.70
2023-03-31T08:44:09.978Z,1.42
2023-03-31T08:49:17.183Z,2.05
2023-03-31T08:54:26.590Z,1.65
2023-03-31T08:59:33.536Z,2.25
2023-03-31T09:05:08.198Z,3.05
2023-03-31T09:10:23.976Z,1.88
2023-03-31T09:15:39.727Z,1.95
2023-03-31T09:20:50.040Z,2.10
2023-03-31T09:25:58.073Z,2.03
2023-03-31T09:31:28.408Z,2.60
2023-03-31T09:37:47.517Z,2.08
2023-03-31T09:43:03.196Z,1.88
2023-03-31T09:48:14.036Z,2.20
2023-03-31T09:53:40.607Z,1.92
2023-03-31T09:58:47.272Z,2.13
2023-03-31T10:03:54.346Z,2.30
2023-03-31T10:09:03.991Z,1.90
2023-03-31T10:14:17.693Z,1.88
2023-03-31T10:19:24.676Z,1.67
2023-03-31T10:24:37.592Z,1.95
2023-03-31T10:29:42.203Z,2.55
2023-03-31T10:34:45.101Z,2.25
2023-03-31T10:39:49.717Z,1.67
2023-03-31T10:45:37.049Z,2.15
2023-03-31T10:51:14.929Z,2.85
2023-03-31T11:02:14.831Z,2.20
2023-03-31T11:07:45.453Z,2.08
2023-03-31T11:13:33.312Z,1.90
2023-03-31T11:19:23.160Z,1.50
2023-03-31T11:24:41.622Z,1.85
2023-03-31T11:29:44.712Z,1.80
2023-03-31T11:35:00.390Z,3.05
2023-03-31T11:40:15.398Z,1.63
2023-03-31T11:45:42.114Z,1.33
2023-03-31T11:50:50.111Z,1.67
2023-03-31T11:55:56.382Z,1.80
2023-03-31T12:01:18.525Z,1.73
2023-03-31T12:06:26.169Z,1.70
2023-03-31T12:11:53.731Z,2.13
2023-03-31T12:17:05.996Z,2.25
2023-03-31T12:22:13.157Z,2.00
2023-03-31T12:27:40.919Z,3.50
2023-03-31T12:33:11.540Z,3.35
2023-03-31T12:46:25.750Z,3.13
2023-03-31T12:51:45.585Z,2.50
2023-03-31T12:57:02.247Z,2.67
2023-03-31T13:02:27.261Z,3.13
2023-03-31T13:07:30.718Z,2.35
2023-03-31T13:12:35.898Z,3.00
2023-03-31T13:17:42.821Z,2.35
2023-03-31T13:22:50.851Z,2.40
2023-03-31T13:27:54.622Z,2.50
2023-03-31T13:33:25.234Z,2.33
2023-03-31T13:38:27.525Z,2.45
2023-03-31T13:43:33.307Z,2.58
2023-03-31T13:49:02.132Z,2.40
2023-03-31T13:54:20.403Z,2.65
2023-03-31T14:00:01.892Z,2.25
2023-03-31T14:05:31.976Z,2.33
2023-03-31T14:10:37.720Z,2.95
2023-03-31T14:16:00.090Z,2.47
2023-03-31T14:21:06.543Z,2.75
2023-03-31T14:26:18.448Z,2.97
2023-03-31T14:31:45.175Z,3.10
2023-03-31T14:36:51.849Z,2.65
2023-03-31T14:41:58.327Z,2.88
2023-03-31T14:47:00.839Z,3.13
2023-03-31T14:52:20.232Z,2.97
2023-03-31T14:57:33.035Z,3.20
2023-03-31T15:02:39.544Z,3.25
2023-03-31T15:07:41.908Z,3.97
2023-03-31T15:12:44.445Z,2.80
2023-03-31T15:17:48.021Z,3.00
2023-03-31T15:22:50.980Z,3.10
2023-03-31T15:28:01.867Z,3.25
2023-03-31T15:33:18.381Z,3.10
2023-03-31T15:38:23.748Z,3.22
2023-03-31T15:43:52.745Z,3.08
2023-03-31T15:48:56.221Z,2.70
2023-03-31T15:53:59.868Z,2.80
2023-03-31T15:59:07.086Z,2.90
2023-03-31T16:04:13.450Z,2.90
2023-03-31T16:09:24.448Z,3.17
2023-03-31T16:14:33.449Z,3.55
2023-03-31T16:19:46.672Z,3.22
2023-03-31T16:24:49.751Z,2.97
2023-03-31T16:30:07.752Z,3.38
2023-03-31T16:35:10.988Z,3.35
2023-03-31T16:40:14.065Z,3.13
2023-03-31T16:45:16.862Z,3.20
2023-03-31T16:50:19.584Z,3.30
2023-03-31T16:55:22.045Z,2.80
2023-03-31T17:00:24.451Z,3.20
2023-03-31T17:05:26.817Z,3.50
2023-03-31T17:10:29.279Z,3.20
2023-03-31T17:15:32.029Z,3.28
2023-03-31T17:20:35.105Z,3.15
2023-03-31T17:25:38.054Z,3.20
2023-03-31T17:30:44.402Z,3.10
2023-03-31T17:35:46.969Z,2.90
2023-03-31T17:40:49.359Z,3.25
2023-03-31T17:45:51.694Z,3.60
2023-03-31T17:50:54.820Z,3.15
2023-03-31T17:55:57.787Z,3.30
2023-03-31T18:01:00.616Z,4.07
2023-03-31T18:06:08.348Z,5.22
2023-03-31T18:11:11.537Z,5.18
2023-03-31T18:16:14.125Z,4.32
2023-03-31T18:21:16.479Z,5.50
2023-03-31T18:26:19.965Z,4.25
2023-03-31T18:31:22.825Z,3.45
2023-03-31T18:36:28.644Z,3.42
2023-03-31T18:41:31.372Z,2.80
2023-03-31T18:46:33.700Z,3.45
2023-03-31T18:51:36.320Z,2.70
2023-03-31T18:56:38.630Z,3.05
2023-03-31T19:01:41.085Z,2.90
2023-03-31T19:06:43.444Z,3.08
2023-03-31T19:11:46.012Z,3.28
2023-03-31T19:16:48.561Z,3.25
2023-03-31T19:21:52.614Z,2.80
2023-03-31T19:26:58.080Z,3.17
2023-03-31T19:32:00.696Z,2.63
2023-03-31T19:37:04.089Z,2.53
2023-03-31T19:42:06.607Z,2.50
2023-03-31T19:47:08.936Z,2.80
2023-03-31T19:52:11.353Z,2.88
2023-03-31T19:57:13.778Z,2.30
2023-03-31T20:02:16.764Z,2.90
2023-03-31T20:07:19.930Z,2.80
2023-03-31T20:12:24.102Z,2.60
2023-03-31T20:17:26.714Z,2.83
2023-03-31T20:22:30.064Z,3.58
2023-03-31T20:27:32.805Z,3.38
2023-03-31T20:32:35.885Z,3.58
2023-03-31T20:37:38.327Z,3.85
2023-03-31T20:42:41.810Z,3.90
2023-03-31T20:47:44.431Z,3.97
2023-03-31T20:52:47.933Z,5.07
2023-03-31T20:57:50.749Z,3.85
2023-03-31T21:02:54.332Z,3.90
2023-03-31T21:07:57.104Z,3.83
2023-03-31T21:13:00.289Z,5.72
2023-03-31T21:18:03.508Z,3.20
2023-03-31T21:23:06.065Z,3.88
2023-03-31T21:28:08.939Z,2.90
2023-03-31T21:33:12.429Z,3.35
2023-03-31T21:38:16.871Z,3.28
2023-03-31T21:43:20.733Z,3.92
2023-03-31T21:48:25.590Z,3.47
2023-03-31T21:53:30.012Z,3.20
2023-03-31T21:58:33.141Z,2.95
2023-03-31T22:03:39.143Z,3.40
2023-03-31T22:08:41.745Z,3.17
2023-03-31T22:13:45.156Z,3.10
2023-03-31T22:18:50.745Z,3.53
2023-03-31T22:23:56.119Z,2.92
2023-03-31T22:28:59.566Z,3.25
2023-03-31T22:34:03.032Z,3.00
2023-03-31T22:39:05.971Z,3.08
2023-03-31T22:44:10.056Z,3.13
2023-03-31T22:49:13.593Z,3.35
2023-03-31T22:54:17.923Z,3.03
2023-03-31T22:59:21.379Z,3.03
2023-03-31T23:04:24.033Z,3.38
2023-03-31T23:09:27.566Z,3.38
2023-03-31T23:14:29.908Z,3.17
2023-03-31T23:19:32.495Z,3.63
2023-03-31T23:24:34.819Z,2.92
2023-03-31T23:29:37.310Z,3.30
2023-03-31T23:34:42.060Z,3.58
2023-03-31T23:39:44.594Z,3.80
2023-03-31T23:44:48.899Z,3.67
2023-03-31T23:49:51.406Z,3.97
2023-03-31T23:54:53.679Z,4.28
2023-03-31T23:59:57.002Z,4.97
